Aeroporto :
LOGIN :

Iscrizione | Disclaimer

   EN    FR    IT 

 










Sommario :    VFR   VFR Marginale   IFR   IFR Intensivo   IFR Molto Intensivo
Visibilità : 
Base nubi : 
>= 8 km
>= 3000ft
5 / 8 km
1000 / 3000 ft
1500m / 5 km
500 / 1000 ft
800 / 1500m
200 / 500 ft
< 800m
< 200 ft
Simboli :   Temporali  Nebbia  Neve Forte  Precipitazioni Forti  Vento > 20 kt
SIGMETs :   Varie  Temporali  Ghiacco  Turbolenza  Onda orograficha  Ceneri Vulcaniche







- Altitudine del aeroporto : 423 ft
- Codice IATA : PIS
- Carte del aeroporto


LFBI - Poitiers

ULTIMO METAR :
  • 201600Z AUTO 08006KT 020V110 CAVOK 24/06 Q1021 TEMPO VRB15G35KT 3000 TSRA BKN050CB

METARs OBSOLETI :
  • 201530Z AUTO 10007KT 050V150 CAVOK 24/07 Q1021 TEMPO VRB15G35KT 3000 -TSRA BKN050CB
  • 201500Z AUTO 02007KT 320V070 CAVOK 23/06 Q1021 TEMPO VRB15G35KT 3000 -TSRA BKN050CB
  • 201430Z AUTO 08004KT 010V140 CAVOK 24/06 Q1022 TEMPO VRB15G35KT 3000 -TSRA BKN050CB
  • 201400Z AUTO 04006KT 360V120 CAVOK 24/07 Q1022 NOSIG
  • 201330Z AUTO 12007KT 050V200 CAVOK 24/08 Q1022 NOSIG

TAF AMD TAF LFBI
Valido dal 20 a 15 ore il 21 a 12 ore UTC


201533Z 2015/2112 05008KT CAVOK
TEMPO 2015/2021 VRB15G25KT SHRA BKN050TCU
PROB40
TEMPO 2016/2020 VRB15G35KT 3000 TSRA BKN050CB
Nessun NOTAM noto per questo aeroporto.
1 SIGMET conosciuto per la FIR Bordeaux (LFBB) :
 
Temporali frequenti
LFBB SIGMET 2 VALID 201500/201700 LFPW
LFBB BORDEAUX FIR/UIR FRQ TS OBS WI N4715 E00200 - N4630 E00300 - N4615 E00300 - N4600 E00245 - N4700 E00115 - N4715 E00200 TOP FL350 MOV SW 20KT NC=



MetMap, La meteo Aeronautica in un colpo d'occhio ! - Copyright ORBIFLY Dicembre 2007 - Disclaimer

ORBIFLY MET'MAP TEAM :

Programmazione e sviluppo : Alexandra Zaïnal
Concezione e sviluppo : Baudouin d'Aumeries
Co-Programmazione e sviluppo : Marc-Olivier Méhu
Supporto tecnico e logistico : Manuel Goepfert
Aiuto per la traduzione : Arnaldo La Scala

Contatto : metmap@orbifly.com




FONTI E CREDITI :

   NOAA